Time;durP1;ratioP1;P1;durP2;ratioP2;P2;SDS_P1;SDS_P2;PMS_P1;PMS_P2;Temp;Humidity;BMP_temperature;BMP_pressure;BME280_temperature;BME280_humidity;BME280_pressure;Samples;Min_cycle;Max_cycle;Signal;HPM_P1;HPM_P2
2022/12/01 00:01:53;;;;;;;16.50;7.23;;;6.60;99.90;;;7.10;100.00;98762.72;5043583;28;20556;-82
2022/12/01 00:04:23;;;;;;;10.40;6.20;;;6.60;99.90;;;7.06;100.00;98764.00;5043058;28;20856;-82
2022/12/01 00:06:52;;;;;;;13.60;6.87;;;6.50;99.90;;;7.07;100.00;98768.22;5042394;28;20489;-82
2022/12/01 00:12:10;;;;;;;11.20;6.77;;;6.50;99.90;;;7.11;100.00;98766.16;5044274;28;20547;-81
2022/12/01 00:14:40;;;;;;;11.20;6.70;;;6.50;99.90;;;7.13;100.00;98765.03;5046888;28;20456;-82
2022/12/01 00:17:11;;;;;;;9.70;6.67;;;6.60;99.90;;;7.16;100.00;98763.91;5046300;28;20500;-82
2022/12/01 00:19:40;;;;;;;12.13;7.33;;;6.60;99.90;;;7.17;100.00;98761.19;5042866;28;20530;-82
2022/12/01 00:22:13;;;;;;;10.97;6.70;;;6.60;99.90;;;7.18;100.00;98767.19;5044066;28;20975;-82
2022/12/01 00:24:42;;;;;;;13.80;7.20;;;6.60;99.90;;;7.18;100.00;98762.00;5044683;28;20492;-82
2022/12/01 00:27:12;;;;;;;14.30;6.00;;;6.70;99.90;;;7.15;100.00;98764.91;5042904;28;20468;-81
2022/12/01 00:29:43;;;;;;;13.70;6.50;;;6.60;99.90;;;7.16;100.00;98758.72;5042297;28;20472;-82
2022/12/01 00:32:13;;;;;;;13.57;6.23;;;6.60;99.90;;;7.17;100.00;98766.38;5041186;28;20536;-82
2022/12/01 00:34:44;;;;;;;11.37;6.30;;;6.70;99.90;;;7.17;100.00;98765.56;5042250;28;20819;-82
2022/12/01 00:37:14;;;;;;;11.43;6.60;;;6.60;99.90;;;7.15;100.00;98763.09;5044955;28;20494;-82
2022/12/01 00:39:43;;;;;;;11.77;6.40;;;6.60;99.90;;;7.18;100.00;98762.81;5042062;28;20974;-82
2022/12/01 00:42:12;;;;;;;8.37;5.80;;;6.60;99.90;;;7.18;100.00;98767.19;5044427;28;20518;-82
2022/12/01 00:44:41;;;;;;;9.50;5.70;;;6.60;99.90;;;7.16;100.00;98754.34;5041403;28;20492;-82
2022/12/01 00:47:12;;;;;;;9.80;5.60;;;6.60;99.90;;;7.14;100.00;98758.88;5044154;28;20491;-82
2022/12/01 00:49:44;;;;;;;10.23;5.70;;;6.50;99.90;;;7.17;100.00;98750.78;5041348;28;20826;-82
2022/12/01 00:52:14;;;;;;;8.03;4.60;;;6.60;99.90;;;7.19;100.00;98754.03;5042203;28;20952;-82
2022/12/01 00:54:45;;;;;;;8.67;5.37;;;6.60;99.90;;;7.15;100.00;98747.50;5044168;28;20476;-82
2022/12/01 00:57:15;;;;;;;8.20;5.37;;;6.50;99.90;;;7.18;100.00;98752.41;5042714;28;20467;-82
2022/12/01 00:59:45;;;;;;;8.67;4.83;;;6.70;99.90;;;7.16;100.00;98749.13;5039200;28;20464;-82
2022/12/01 01:02:17;;;;;;;8.27;4.60;;;6.60;99.90;;;7.12;100.00;98758.19;5039273;28;20477;-82
2022/12/01 01:04:46;;;;;;;6.23;4.67;;;6.50;99.90;;;7.16;100.00;98753.50;5042032;28;20574;-82
2022/12/01 01:07:15;;;;;;;6.77;4.90;;;6.60;99.90;;;7.17;100.00;98749.94;5042715;28;21240;-82
2022/12/01 01:09:45;;;;;;;7.80;4.60;;;6.60;99.90;;;7.17;100.00;98748.19;5041851;28;20556;-82
2022/12/01 01:12:15;;;;;;;9.13;5.23;;;6.60;99.90;;;7.17;100.00;98761.19;5039055;28;20553;-82
2022/12/01 01:14:46;;;;;;;8.00;4.00;;;6.70;99.90;;;7.17;100.00;98765.56;5041161;28;20983;-82
2022/12/01 01:17:16;;;;;;;9.40;4.67;;;6.70;99.90;;;7.17;100.00;98762.97;5042398;28;20518;-82
2022/12/01 01:19:46;;;;;;;11.17;5.20;;;6.70;99.90;;;7.12;100.00;98747.78;5037810;28;20468;-82
2022/12/01 01:22:16;;;;;;;6.63;4.53;;;6.60;99.90;;;7.13;100.00;98762.44;5044389;28;20472;-82
2022/12/01 01:24:45;;;;;;;7.60;5.10;;;6.70;99.90;;;7.12;100.00;98766.00;5040951;28;20621;-82
2022/12/01 01:27:15;;;;;;;8.07;4.80;;;6.70;99.90;;;7.13;100.00;98759.84;5040327;28;20468;-82
2022/12/01 01:29:44;;;;;;;7.97;4.63;;;6.60;99.90;;;7.07;100.00;98760.44;5041131;28;20458;-82
2022/12/01 01:32:14;;;;;;;9.00;5.63;;;6.50;99.90;;;7.12;100.00;98765.16;5040231;28;20589;-82
2022/12/01 01:34:45;;;;;;;13.13;5.60;;;6.60;99.90;;;7.13;100.00;98764.22;5041871;28;20469;-82
2022/12/01 01:37:15;;;;;;;11.67;5.60;;;6.60;99.90;;;7.09;100.00;98767.13;5039546;28;20457;-82
2022/12/01 01:39:46;;;;;;;11.23;6.00;;;6.70;99.90;;;7.10;100.00;98770.53;5041769;28;20493;-82
2022/12/01 01:42:19;;;;;;;17.13;5.90;;;6.60;99.90;;;7.10;100.00;98773.13;5038932;28;20475;-82
2022/12/01 01:44:56;;;;;;;14.10;6.40;;;6.50;99.90;;;7.14;100.00;98771.88;5039906;28;20489;-82
2022/12/01 01:47:30;;;;;;;13.97;6.70;;;6.60;99.90;;;7.12;100.00;98772.97;5042129;28;20460;-82
2022/12/01 01:50:08;;;;;;;11.77;5.63;;;6.60;99.90;;;7.12;100.00;98776.41;5040906;28;20460;-82
2022/12/01 01:52:43;;;;;;;9.90;6.20;;;6.60;99.90;;;7.13;100.00;98772.00;5042920;28;20468;-81
2022/12/01 01:55:14;;;;;;;14.37;6.20;;;6.60;99.90;;;7.11;100.00;98771.34;5041944;28;20465;-82
2022/12/01 01:57:45;;;;;;;10.37;5.93;;;6.60;99.90;;;7.10;100.00;98775.72;5044671;28;20490;-82
2022/12/01 02:00:18;;;;;;;12.37;5.90;;;6.60;99.90;;;7.10;100.00;98775.72;5043220;28;20453;-82
2022/12/01 02:02:51;;;;;;;17.07;6.60;;;6.60;99.90;;;7.07;100.00;98769.06;5045061;28;20589;-82
2022/12/01 02:05:25;;;;;;;12.50;6.53;;;6.60;99.90;;;7.09;100.00;98771.50;5044113;28;20540;-82
2022/12/01 02:07:58;;;;;;;8.97;5.40;;;6.50;99.90;;;7.05;100.00;98772.75;5038713;28;20465;-81
2022/12/01 02:10:45;;;;;;;11.43;5.53;;;6.60;99.90;;;7.06;100.00;98774.38;5040001;28;20489;-82
2022/12/01 02:13:27;;;;;;;10.47;6.20;;;6.50;99.90;;;7.05;100.00;98772.75;5038836;28;20458;-82
2022/12/01 02:16:12;;;;;;;12.10;6.00;;;6.60;99.90;;;7.06;100.00;98769.19;5040166;28;20453;-82
2022/12/01 02:18:53;;;;;;;11.43;5.70;;;6.60;99.90;;;7.05;100.00;98768.38;5044003;28;20457;-82
2022/12/01 02:21:42;;;;;;;10.53;5.63;;;6.60;99.90;;;7.03;100.00;98769.47;5044066;28;20457;-82
2022/12/01 02:25:41;;;;;;;9.90;5.50;;;6.60;99.90;;;7.08;100.00;98767.25;5046471;28;20528;-82
2022/12/01 02:28:54;;;;;;;12.10;6.30;;;6.50;99.90;;;7.06;100.00;98764.00;5047921;28;20500;-82
2022/12/01 02:31:40;;;;;;;9.00;5.80;;;6.60;99.90;;;7.06;100.00;98764.81;5040991;28;20993;-82
2022/12/01 02:34:20;;;;;;;8.03;5.30;;;6.60;99.90;;;7.05;100.00;98768.38;5042308;28;20553;-82
2022/12/01 02:36:59;;;;;;;7.80;4.90;;;6.50;99.90;;;7.01;100.00;98763.63;5046025;28;20488;-84
2022/12/01 02:39:35;;;;;;;11.43;5.30;;;6.50;99.90;;;7.02;100.00;98762.63;5044189;28;21018;-82
2022/12/01 02:42:47;;;;;;;11.10;5.33;;;6.50;99.90;;;7.05;100.00;98757.13;5046791;28;20461;-82
2022/12/01 02:45:12;;;;;;;11.10;5.90;;;6.60;99.90;;;7.06;100.00;98761.38;5043026;28;20504;-82
2022/12/01 02:47:46;;;;;;;10.60;6.20;;;6.50;99.90;;;7.07;100.00;98757.84;5044917;28;20449;-82
2022/12/01 02:50:15;;;;;;;7.97;4.37;;;6.50;99.90;;;7.09;100.00;98764.50;5039499;28;20527;-82
2022/12/01 02:52:45;;;;;;;9.83;5.80;;;6.60;99.90;;;7.07;100.00;98755.22;5044403;28;20856;-82
2022/12/01 02:55:15;;;;;;;9.13;5.17;;;6.60;99.90;;;7.08;100.00;98757.66;5044206;28;20515;-82
2022/12/01 02:57:43;;;;;;;8.63;5.30;;;6.50;99.90;;;7.07;100.00;98765.63;5046134;28;20468;-82
2022/12/01 03:00:16;;;;;;;11.70;5.40;;;6.50;99.90;;;7.11;100.00;98768.75;5042410;28;20880;-82
2022/12/01 03:03:18;;;;;;;9.97;5.47;;;6.60;99.90;;;7.10;100.00;98765.34;5046934;28;20469;-83
2022/12/01 03:06:01;;;;;;;7.23;4.60;;;6.50;99.90;;;7.11;100.00;98764.38;5043883;28;21121;-82
2022/12/01 03:08:44;;;;;;;11.20;5.77;;;6.60;99.90;;;7.13;100.00;98759.00;5041337;28;20465;-82
2022/12/01 03:11:28;;;;;;;5.57;4.10;;;6.60;99.90;;;7.12;100.00;98762.56;5042590;28;20462;-82
2022/12/01 03:14:14;;;;;;;7.90;4.73;;;6.60;99.90;;;7.10;100.00;98760.13;5046068;28;21000;-82
2022/12/01 03:16:52;;;;;;;5.80;4.40;;;6.60;99.90;;;7.08;100.00;98752.47;5041073;28;20472;-82
2022/12/01 03:19:33;;;;;;;5.30;3.67;;;6.60;99.90;;;7.08;100.00;98754.25;5044831;28;20596;-82
2022/12/01 03:22:10;;;;;;;7.10;4.20;;;6.60;99.90;;;7.10;100.00;98754.94;5046529;28;20465;-82
2022/12/01 03:24:43;;;;;;;7.77;4.20;;;6.60;99.90;;;7.12;100.00;98758.19;5046703;28;21302;-82
2022/12/01 03:27:15;;;;;;;5.67;3.80;;;6.60;99.90;;;7.08;100.00;98746.44;5046371;28;20548;-82
2022/12/01 03:29:51;;;;;;;4.43;3.67;;;6.60;99.90;;;7.09;100.00;98755.88;5040492;28;21080;-82
2022/12/01 03:32:30;;;;;;;5.87;3.40;;;6.50;99.90;;;7.11;100.00;98755.75;5040901;28;20472;-82
2022/12/01 03:35:09;;;;;;;7.10;3.57;;;6.60;99.90;;;7.13;100.00;98749.44;5044499;28;20496;-82
2022/12/01 03:37:45;;;;;;;6.23;3.07;;;6.60;99.90;;;7.08;100.00;98746.44;5043581;28;20541;-82
2022/12/01 03:40:23;;;;;;;3.80;2.97;;;6.60;99.90;;;7.06;100.00;98753.59;5045260;28;20468;-81
2022/12/01 03:42:57;;;;;;;3.40;2.77;;;6.60;99.90;;;7.08;100.00;98741.25;5043358;28;20518;-82
2022/12/01 03:45:49;;;;;;;4.10;2.57;;;6.50;99.90;;;7.08;100.00;98742.06;5042673;28;20552;-82
2022/12/01 03:48:20;;;;;;;4.17;3.20;;;6.60;99.90;;;7.05;100.00;98744.13;5043201;28;20540;-82
2022/12/01 03:51:05;;;;;;;3.23;2.47;;;6.60;99.90;;;7.08;100.00;98742.06;5043881;28;21077;-82
2022/12/01 03:53:47;;;;;;;3.97;2.60;;;6.60;99.90;;;7.08;100.00;98738.63;5043887;28;20477;-81
2022/12/01 03:56:23;;;;;;;3.00;2.47;;;6.60;99.90;;;7.10;100.00;98744.53;5045411;28;20536;-82
2022/12/01 03:58:58;;;;;;;4.03;2.93;;;6.60;99.90;;;7.10;100.00;98749.72;5044615;28;20484;-81
2022/12/01 04:01:33;;;;;;;3.60;2.87;;;6.60;99.90;;;7.09;100.00;98756.72;5042915;28;20555;-83
2022/12/01 04:04:08;;;;;;;4.23;2.80;;;6.60;99.90;;;7.11;100.00;98755.75;5045889;28;20464;-82
2022/12/01 04:06:43;;;;;;;4.40;3.20;;;6.50;99.90;;;7.08;100.00;98751.66;5044915;28;20507;-82
2022/12/01 04:09:13;;;;;;;4.47;3.70;;;6.60;99.90;;;7.09;100.00;98750.69;5042473;28;20495;-82
2022/12/01 04:14:30;;;;;;;4.67;3.17;;;6.70;99.90;;;7.09;100.00;98758.50;5043812;28;20465;-82
2022/12/01 04:17:01;;;;;;;5.57;3.30;;;6.60;99.90;;;7.13;100.00;98759.00;5041067;28;20469;-81
2022/12/01 04:19:30;;;;;;;5.50;3.63;;;6.60;99.90;;;7.12;100.00;98766.00;5044937;28;21042;-82
2022/12/01 04:22:01;;;;;;;5.20;3.17;;;6.60;99.90;;;7.13;100.00;98770.25;5041879;28;20613;-81
2022/12/01 04:24:31;;;;;;;6.00;3.80;;;6.60;99.90;;;7.12;100.00;98767.78;5040994;28;20457;-82
2022/12/01 04:27:00;;;;;;;8.57;4.37;;;6.60;99.90;;;7.11;100.00;98766.97;5042576;28;20552;-82
2022/12/01 04:29:30;;;;;;;5.33;3.20;;;6.50;99.90;;;7.13;100.00;98767.63;5046974;28;20552;-82
2022/12/01 04:31:59;;;;;;;6.13;3.60;;;6.50;99.90;;;7.09;100.00;98771.50;5044905;28;20552;-82
2022/12/01 04:34:28;;;;;;;5.53;3.87;;;6.50;99.90;;;7.08;100.00;98772.44;5047573;28;20571;-82
2022/12/01 04:36:57;;;;;;;4.70;3.40;;;6.50;99.90;;;7.06;100.00;98767.41;5046621;28;21309;-82
2022/12/01 04:39:28;;;;;;;5.47;3.50;;;6.40;99.90;;;7.08;100.00;98769.84;5046608;28;20468;-82
2022/12/01 04:41:58;;;;;;;2.70;2.40;;;6.60;99.90;;;7.07;100.00;98770.84;5043856;28;20468;-81
2022/12/01 04:44:29;;;;;;;3.73;2.60;;;6.50;99.90;;;7.03;100.00;98779.88;5044254;28;21085;-82
2022/12/01 04:47:03;;;;;;;3.23;2.50;;;6.50;99.90;;;7.01;100.00;98774.03;5037524;28;21418;-82
2022/12/01 04:49:36;;;;;;;2.47;2.23;;;6.50;99.90;;;7.00;100.00;98775.81;5045185;28;20457;-82
2022/12/01 04:52:06;;;;;;;2.83;2.40;;;6.60;99.90;;;6.90;100.00;98776.81;5044116;28;20485;-82
2022/12/01 04:54:38;;;;;;;2.83;2.23;;;6.50;99.90;;;6.84;100.00;98779.97;5045804;28;20837;-81
2022/12/01 04:57:07;;;;;;;3.10;2.53;;;6.40;99.90;;;6.76;100.00;98778.13;5044642;28;20461;-82
2022/12/01 04:59:36;;;;;;;4.17;2.83;;;6.30;99.90;;;6.74;100.00;98784.41;5044007;28;20523;-82
2022/12/01 05:02:06;;;;;;;3.57;2.87;;;6.30;99.90;;;6.73;100.00;98780.19;5041863;28;20498;-82
2022/12/01 05:04:37;;;;;;;3.93;2.90;;;6.30;99.90;;;6.74;100.00;98780.03;5042969;28;20975;-82
2022/12/01 05:07:08;;;;;;;3.73;2.97;;;6.20;99.90;;;6.70;100.00;98778.69;5045467;28;20477;-82
2022/12/01 05:09:38;;;;;;;3.77;2.87;;;6.20;99.90;;;6.71;100.00;98774.31;5040049;28;20513;-82
2022/12/01 05:12:08;;;;;;;4.07;2.80;;;6.20;99.90;;;6.70;100.00;98785.69;5044104;28;20465;-82
2022/12/01 05:14:36;;;;;;;3.73;2.87;;;6.20;99.90;;;6.68;100.00;98785.00;5044035;28;20463;-82
2022/12/01 05:17:06;;;;;;;13.80;7.60;;;6.10;99.90;;;6.72;100.00;98783.75;5042913;28;20483;-82
2022/12/01 05:22:22;;;;;;;2.67;2.30;;;6.20;99.90;;;6.65;100.00;98790.50;5039558;28;20840;-78
2022/12/01 05:25:12;;;;;;;5.30;3.00;;;6.10;99.90;;;6.68;100.00;98787.59;5040049;28;20449;-82
2022/12/01 05:27:42;;;;;;;4.27;2.77;;;6.20;99.90;;;6.67;100.00;98786.78;5039712;28;20449;-82
2022/12/01 05:30:15;;;;;;;5.53;2.83;;;6.10;99.90;;;6.64;100.00;98781.03;5039525;28;20460;-82
2022/12/01 05:32:45;;;;;;;2.53;2.27;;;6.10;99.90;;;6.64;100.00;98784.47;5041842;28;20472;-82
2022/12/01 05:35:15;;;;;;;8.73;2.23;;;6.20;99.90;;;6.63;100.00;98789.81;5038261;28;20990;-82
2022/12/01 05:37:45;;;;;;;3.00;2.30;;;6.10;99.90;;;6.62;100.00;98790.78;5041554;28;20468;-82
2022/12/01 05:40:18;;;;;;;6.07;3.63;;;6.10;99.90;;;6.60;100.00;98788.31;5041363;28;20826;-79
2022/12/01 05:42:48;;;;;;;4.07;2.90;;;6.10;99.90;;;6.63;100.00;98787.22;5039379;28;20551;-82
2022/12/01 05:45:17;;;;;;;4.60;2.70;;;6.10;99.90;;;6.62;100.00;98790.78;5039841;28;21014;-82
2022/12/01 05:47:46;;;;;;;4.43;2.60;;;6.20;99.90;;;6.63;100.00;98787.22;5044755;28;20564;-81
2022/12/01 05:50:17;;;;;;;2.30;1.90;;;6.10;99.90;;;6.64;100.00;98792.25;5045318;28;20546;-82
2022/12/01 05:52:47;;;;;;;3.27;2.10;;;6.10;99.90;;;6.67;100.00;98791.16;5045508;28;20523;-82
2022/12/01 05:55:18;;;;;;;1.93;1.70;;;6.20;99.90;;;6.63;100.00;98782.81;5045450;28;21025;-82
2022/12/01 05:57:48;;;;;;;1.70;1.60;;;6.20;99.90;;;6.61;100.00;98787.34;5049316;28;20507;-82
2022/12/01 06:00:22;;;;;;;1.93;1.80;;;6.20;99.90;;;6.55;100.00;98786.16;5050304;28;20464;-82
2022/12/01 06:02:56;;;;;;;2.07;1.87;;;6.20;99.90;;;6.55;100.00;98791.34;5050958;28;20475;-81
2022/12/01 06:05:26;;;;;;;2.10;1.67;;;6.00;99.90;;;6.55;100.00;98785.34;5048883;28;20458;-82
2022/12/01 06:07:56;;;;;;;1.90;1.67;;;6.00;99.90;;;6.54;100.00;98783.69;5048131;28;21161;-81
2022/12/01 06:10:28;;;;;;;2.63;2.00;;;6.00;99.90;;;6.52;100.00;98791.66;5048818;28;20561;-82
2022/12/01 06:12:58;;;;;;;2.97;1.70;;;6.00;99.90;;;6.54;100.00;98784.50;5050422;28;20464;-82
2022/12/01 06:15:27;;;;;;;1.63;1.53;;;6.00;99.90;;;6.53;100.00;98788.06;5049188;28;20461;-81
2022/12/01 06:17:59;;;;;;;2.80;1.80;;;6.10;99.90;;;6.50;100.00;98793.56;5049707;28;20559;-81
2022/12/01 06:20:28;;;;;;;3.10;2.50;;;6.00;99.90;;;6.49;100.00;98786.72;5049002;28;20456;-82
2022/12/01 06:22:58;;;;;;;2.90;2.20;;;6.00;99.90;;;6.48;100.00;98787.69;5047982;28;20461;-81
2022/12/01 06:25:29;;;;;;;2.87;2.37;;;6.00;99.90;;;6.48;100.00;98789.47;5045473;28;20457;-82
2022/12/01 06:27:59;;;;;;;1.97;1.77;;;6.00;99.90;;;6.46;100.00;98786.19;5045411;28;20505;-81
2022/12/01 06:30:31;;;;;;;2.30;1.70;;;5.80;99.90;;;6.40;100.00;98786.75;5046549;28;20457;-81
2022/12/01 06:33:01;;;;;;;2.03;1.60;;;6.00;99.90;;;6.36;100.00;98791.41;5045231;28;20468;-81
2022/12/01 06:35:31;;;;;;;2.97;2.17;;;5.90;99.90;;;6.31;100.00;98791.03;5047742;28;20469;-81
2022/12/01 06:38:01;;;;;;;2.30;1.90;;;5.80;99.90;;;6.34;100.00;98801.13;5045864;28;20464;-81
2022/12/01 06:40:33;;;;;;;6.10;2.40;;;5.80;99.90;;;6.34;100.00;98798.53;5046625;28;20457;-81
2022/12/01 06:43:03;;;;;;;2.60;2.00;;;5.80;99.90;;;6.35;100.00;98802.75;5047471;28;20972;-82
2022/12/01 06:45:33;;;;;;;3.73;2.70;;;5.80;99.90;;;6.33;100.00;98807.28;5044743;28;20497;-82
2022/12/01 06:48:04;;;;;;;4.47;2.50;;;5.80;99.90;;;6.32;100.00;98818.63;5046066;28;20497;-82
2022/12/01 06:50:34;;;;;;;2.83;2.33;;;5.80;99.90;;;6.28;100.00;98811.28;5043150;28;20482;-81
2022/12/01 06:53:02;;;;;;;3.10;2.53;;;5.80;99.90;;;6.27;100.00;98817.41;5044252;28;20544;-81
2022/12/01 06:55:34;;;;;;;6.03;2.47;;;5.80;99.90;;;6.26;100.00;98814.00;5043003;28;20495;-82
2022/12/01 06:58:04;;;;;;;3.73;2.43;;;5.70;99.90;;;6.27;100.00;98823.44;5043039;28;20465;-81
2022/12/01 07:00:35;;;;;;;3.20;2.90;;;5.70;99.90;;;6.25;100.00;98820.16;5043261;28;20453;-81
2022/12/01 07:03:04;;;;;;;5.00;3.07;;;5.70;99.90;;;6.23;100.00;98824.69;5041134;28;20470;-81
2022/12/01 07:05:35;;;;;;;2.33;2.13;;;5.70;99.90;;;6.23;100.00;98831.63;5042113;28;20467;-82
2022/12/01 07:08:06;;;;;;;3.90;2.37;;;5.70;99.90;;;6.20;100.00;98827.56;5043637;28;20500;-82
2022/12/01 07:10:37;;;;;;;3.27;2.03;;;5.70;99.90;;;6.19;100.00;98825.91;5040805;28;20465;-82
2022/12/01 07:13:07;;;;;;;4.63;2.97;;;5.70;99.90;;;6.15;100.00;98829.75;5043504;28;20496;-81
2022/12/01 07:15:38;;;;;;;3.00;2.77;;;5.60;99.90;;;6.20;100.00;98837.94;5041156;28;20475;-82
2022/12/01 07:18:08;;;;;;;5.77;3.20;;;5.70;99.90;;;6.19;100.00;98831.09;5042509;28;20474;-81
2022/12/01 07:20:38;;;;;;;3.67;2.60;;;5.70;99.90;;;6.17;100.00;98838.22;5044930;28;20465;-81
2022/12/01 07:23:07;;;;;;;3.67;2.90;;;5.70;99.90;;;6.10;100.00;98824.16;5042396;28;20468;-82
2022/12/01 07:25:38;;;;;;;4.10;3.27;;;5.60;99.90;;;6.16;100.00;98846.13;5042853;28;20492;-82
2022/12/01 07:28:09;;;;;;;3.73;3.07;;;5.60;99.90;;;6.17;100.00;98843.41;5040816;28;20481;-81
2022/12/01 07:30:40;;;;;;;5.30;3.73;;;5.60;99.90;;;6.18;100.00;98845.03;5043460;28;20470;-81
2022/12/01 07:33:10;;;;;;;10.60;4.67;;;5.60;99.90;;;6.14;100.00;98845.47;5043046;28;20544;-81
2022/12/01 07:35:39;;;;;;;8.57;4.33;;;5.50;99.90;;;6.15;100.00;98853.09;5042934;28;20490;-82
2022/12/01 07:38:10;;;;;;;6.30;4.57;;;5.50;99.90;;;6.15;100.00;98849.69;5041049;28;20983;-82
2022/12/01 07:40:41;;;;;;;10.07;5.77;;;5.50;99.90;;;6.18;100.00;98852.03;5042195;28;20480;-81
2022/12/01 07:43:11;;;;;;;7.00;4.23;;;5.60;99.90;;;6.13;100.00;98847.25;5043211;28;20461;-82
2022/12/01 07:45:40;;;;;;;13.13;5.93;;;5.50;99.90;;;6.12;100.00;98850.78;5045314;28;20461;-82
2022/12/01 07:48:10;;;;;;;8.00;5.17;;;5.50;99.90;;;6.12;100.00;98857.75;5048405;28;20529;-82
2022/12/01 07:50:40;;;;;;;10.07;5.70;;;5.60;99.90;;;6.11;100.00;98856.94;5047131;28;20542;-81
2022/12/01 07:53:09;;;;;;;12.33;6.30;;;5.60;99.90;;;6.10;100.00;98859.69;5049028;28;20487;-82
2022/12/01 07:55:38;;;;;;;9.80;5.90;;;5.60;99.90;;;6.04;100.00;98855.84;5049083;28;20457;-81
2022/12/01 07:58:09;;;;;;;8.63;5.33;;;5.60;99.90;;;5.99;100.00;98856.28;5049604;28;20500;-82
2022/12/01 08:00:40;;;;;;;9.67;6.33;;;5.50;99.90;;;5.96;100.00;98853.13;5049449;28;20483;-81
2022/12/01 08:03:09;;;;;;;12.20;6.10;;;5.50;99.90;;;5.93;100.00;98856.84;5048611;28;20963;-81
2022/12/01 08:05:40;;;;;;;10.77;5.43;;;5.50;99.90;;;5.93;100.00;98862.03;5048604;28;20467;-81
2022/12/01 08:08:09;;;;;;;8.20;5.20;;;5.50;99.90;;;5.91;100.00;98857.91;5046903;28;21002;-81
2022/12/01 08:10:39;;;;;;;11.20;5.53;;;5.50;99.90;;;5.88;100.00;98869.41;5048380;28;20487;-82
2022/12/01 08:13:09;;;;;;;9.27;5.77;;;5.30;99.90;;;5.91;100.00;98868.28;5049427;28;20951;-82
2022/12/01 08:15:45;;;;;;;8.83;5.83;;;5.30;99.90;;;5.90;100.00;98870.06;5047671;28;20963;-81
2022/12/01 08:18:15;;;;;;;8.13;4.83;;;5.40;99.90;;;5.85;100.00;98869.66;5049369;28;20477;-82
2022/12/01 08:20:45;;;;;;;10.30;6.33;;;5.30;99.90;;;5.89;100.00;98872.81;5046862;28;20516;-81
2022/12/01 08:23:14;;;;;;;12.63;5.13;;;5.40;99.90;;;5.89;100.00;98872.81;5044863;28;20473;-81
2022/12/01 08:25:43;;;;;;;8.27;5.13;;;5.40;99.90;;;5.87;100.00;98885.91;5045083;28;20470;-81
2022/12/01 08:28:15;;;;;;;10.03;5.40;;;5.40;99.90;;;5.87;100.00;98882.50;5047063;28;20511;-82
2022/12/01 08:30:46;;;;;;;7.77;5.10;;;5.40;99.90;;;5.85;100.00;98884.38;5048532;28;20544;-81
2022/12/01 08:33:16;;;;;;;7.93;4.80;;;5.30;99.90;;;5.86;100.00;98893.84;5049139;28;20495;-82
2022/12/01 08:35:47;;;;;;;9.50;5.10;;;5.40;99.90;;;5.82;100.00;98895.03;5048450;28;20465;-81
2022/12/01 08:38:16;;;;;;;8.43;4.70;;;5.30;99.90;;;5.82;100.00;98892.44;5049269;28;20970;-81
2022/12/01 08:40:45;;;;;;;8.13;4.67;;;5.40;99.90;;;5.81;100.00;98893.41;5047887;28;20504;-81
2022/12/01 08:43:16;;;;;;;8.20;4.87;;;5.40;99.90;;;5.80;100.00;98896.94;5046473;28;20557;-82
2022/12/01 08:46:07;;;;;;;7.17;4.50;;;5.30;99.90;;;5.83;100.00;98891.50;5043033;28;20461;-81
2022/12/01 08:48:38;;;;;;;7.13;4.87;;;5.40;99.90;;;5.81;100.00;98894.22;5041427;28;20551;-81
2022/12/01 08:51:09;;;;;;;5.70;4.40;;;5.30;99.90;;;5.78;100.00;98894.50;5042998;28;20487;-82
2022/12/01 08:53:42;;;;;;;9.00;4.30;;;5.30;99.90;;;5.78;100.00;98891.91;5044958;28;20465;-81
2022/12/01 08:56:17;;;;;;;6.10;3.80;;;5.30;99.90;;;5.75;100.00;98888.75;5044584;28;20465;-81
2022/12/01 08:58:49;;;;;;;9.87;5.23;;;5.20;99.90;;;5.72;100.00;98896.81;5044511;28;20461;-81
2022/12/01 09:01:19;;;;;;;6.83;4.70;;;5.20;99.90;;;5.73;100.00;98895.84;5042372;28;20461;-81
2022/12/01 09:04:03;;;;;;;10.20;5.20;;;5.20;99.90;;;5.72;100.00;98895.03;5041213;28;20552;-81
2022/12/01 09:06:39;;;;;;;6.83;4.50;;;5.20;99.90;;;5.65;100.00;98896.53;5041880;28;20990;-82
2022/12/01 09:09:11;;;;;;;7.63;5.20;;;5.20;99.90;;;5.62;100.00;98894.22;5045960;28;20496;-81
2022/12/01 09:11:42;;;;;;;7.70;5.07;;;5.10;99.90;;;5.63;100.00;98900.19;5047165;28;20481;-81
2022/12/01 09:14:14;;;;;;;8.50;4.40;;;5.10;99.90;;;5.61;100.00;98895.16;5046181;28;20461;-81
2022/12/01 09:16:46;;;;;;;7.00;4.63;;;5.20;99.90;;;5.55;100.00;98898.31;5048489;28;20466;-80
2022/12/01 09:19:17;;;;;;;11.63;5.03;;;5.10;99.90;;;5.56;100.00;98898.16;5047576;28;20884;-81
2022/12/01 09:21:53;;;;;;;9.37;5.63;;;5.10;99.90;;;5.56;100.00;98899.91;5047300;28;20465;-81
2022/12/01 09:24:22;;;;;;;8.37;5.20;;;5.10;99.90;;;5.54;100.00;98897.47;5046034;28;20516;-81
2022/12/01 09:26:55;;;;;;;7.10;5.07;;;5.10;99.90;;;5.55;100.00;98911.28;5046972;28;20475;-81
2022/12/01 09:29:27;;;;;;;8.03;5.93;;;5.00;99.90;;;5.55;100.00;98904.28;5048022;28;20953;-81
2022/12/01 09:31:56;;;;;;;10.30;5.40;;;5.10;99.90;;;5.54;100.00;98910.44;5046371;28;20983;-81
2022/12/01 09:34:27;;;;;;;8.37;5.70;;;5.00;99.90;;;5.58;100.00;98919.59;5051795;28;20487;-82
2022/12/01 09:36:58;;;;;;;8.60;5.30;;;5.00;99.90;;;5.54;100.00;98913.03;5051501;28;20534;-81
2022/12/01 09:39:26;;;;;;;7.53;4.53;;;5.10;99.90;;;5.57;100.00;98917.97;5052771;28;20457;-81
2022/12/01 09:42:03;;;;;;;7.27;4.50;;;5.00;99.90;;;5.58;100.00;98914.41;5048188;28;21048;-81
2022/12/01 09:44:47;;;;;;;7.13;4.97;;;5.10;99.90;;;5.57;100.00;98912.78;5049015;28;20591;-81
2022/12/01 09:47:25;;;;;;;9.30;6.13;;;5.10;99.90;;;5.57;100.00;98909.34;5051499;28;20472;-81
2022/12/01 09:50:01;;;;;;;7.27;4.90;;;5.00;99.90;;;5.55;100.00;98909.47;5049240;28;20497;-81
2022/12/01 09:52:40;;;;;;;9.43;4.13;;;5.00;99.90;;;5.58;100.00;98911.81;5050645;28;20558;-82
2022/12/01 09:55:14;;;;;;;7.20;4.40;;;5.00;99.90;;;5.59;100.00;98910.03;5051984;28;20484;-81
2022/12/01 09:57:48;;;;;;;7.80;5.20;;;5.10;99.90;;;5.55;100.00;98906.88;5050980;28;20475;-81
2022/12/01 10:00:24;;;;;;;7.97;5.00;;;5.00;99.90;;;5.55;100.00;98903.50;5050186;28;20831;-82
2022/12/01 10:02:59;;;;;;;10.63;5.57;;;5.00;99.90;;;5.56;100.00;98900.75;5050757;28;20500;-81
2022/12/01 10:05:38;;;;;;;7.30;5.40;;;5.00;99.90;;;5.55;100.00;98896.50;5049806;28;20663;-81
2022/12/01 10:08:36;;;;;;;9.20;4.93;;;5.00;99.90;;;5.55;100.00;98899.09;5047882;28;20496;-81
2022/12/01 10:11:16;;;;;;;7.40;4.73;;;5.00;99.90;;;5.59;100.00;98899.66;5044926;28;20453;-81
2022/12/01 10:13:46;;;;;;;8.50;5.03;;;5.00;99.90;;;5.57;100.00;98902.41;5045801;28;20450;-82
2022/12/01 10:16:26;;;;;;;10.03;5.60;;;5.00;99.90;;;5.53;100.00;98901.03;5045250;28;20875;-81
2022/12/01 10:19:04;;;;;;;10.03;5.67;;;5.00;99.90;;;5.54;100.00;98897.47;5047986;28;20471;-81
2022/12/01 10:21:58;;;;;;;9.93;5.87;;;4.90;99.90;;;5.57;100.00;98893.78;5049360;28;20575;-81
2022/12/01 10:24:52;;;;;;;10.50;5.87;;;4.90;99.90;;;5.59;100.00;98891.88;5049800;28;20465;-81
2022/12/01 10:27:45;;;;;;;12.50;6.70;;;5.00;99.90;;;5.57;100.00;98891.19;5050512;28;20515;-81
2022/12/01 10:30:18;;;;;;;9.70;6.13;;;5.00;99.90;;;5.57;100.00;98892.03;5050607;28;20559;-81
2022/12/01 10:32:55;;;;;;;10.80;6.23;;;5.00;99.90;;;5.61;100.00;98889.16;5050068;28;20468;-81
2022/12/01 10:35:28;;;;;;;10.20;6.80;;;5.00;99.90;;;5.59;100.00;98897.88;5050158;28;21130;-81
2022/12/01 10:38:05;;;;;;;13.70;7.40;;;5.00;99.90;;;5.63;100.00;98890.66;5051323;28;20991;-81
2022/12/01 10:40:35;;;;;;;9.43;5.50;;;5.10;99.90;;;5.59;100.00;98886.69;5049338;28;20448;-81
2022/12/01 10:43:05;;;;;;;13.93;7.67;;;5.10;99.90;;;5.56;100.00;98876.56;5050236;28;20492;-81
2022/12/01 10:45:42;;;;;;;13.70;7.90;;;5.00;99.90;;;5.54;100.00;98884.50;5050869;28;20462;-81
2022/12/01 10:48:16;;;;;;;14.20;7.30;;;4.90;99.90;;;5.56;100.00;98881.75;5050592;28;21032;-81
2022/12/01 10:50:48;;;;;;;12.30;7.20;;;5.00;99.90;;;5.50;100.00;98879.72;5048737;28;21072;-81
2022/12/01 10:53:36;;;;;;;11.50;7.50;;;5.00;99.90;;;5.50;100.00;98875.34;5049453;28;20469;-82
2022/12/01 10:56:14;;;;;;;12.43;6.97;;;5.00;99.90;;;5.50;100.00;98877.94;5050388;28;20457;-81
2022/12/01 10:58:47;;;;;;;12.30;7.13;;;5.00;99.90;;;5.49;100.00;98880.66;5048560;28;20522;-81
2022/12/01 11:01:21;;;;;;;12.57;6.90;;;4.90;99.90;;;5.50;100.00;98874.53;5046842;28;20453;-81